createdAt,value
2023-12-14T00:00:46.769Z,38.70
2023-12-14T00:01:46.750Z,38.97
2023-12-14T00:02:46.714Z,44.77
2023-12-14T00:03:46.780Z,39.21
2023-12-14T00:04:46.704Z,39.10
2023-12-14T00:05:46.719Z,39.10
2023-12-14T00:06:46.668Z,37.91
2023-12-14T00:07:46.684Z,38.11
2023-12-14T00:08:46.662Z,38.89
2023-12-14T00:09:46.635Z,38.65
2023-12-14T00:10:46.642Z,39.27
2023-12-14T00:11:46.615Z,39.05
2023-12-14T00:12:46.614Z,41.93
2023-12-14T00:13:46.653Z,41.66
2023-12-14T00:14:46.591Z,40.89
2023-12-14T00:15:46.576Z,41.28
2023-12-14T00:16:46.603Z,40.51
2023-12-14T00:17:46.578Z,40.86
2023-12-14T00:18:46.584Z,40.40
2023-12-14T00:19:46.596Z,41.16
2023-12-14T00:20:46.516Z,41.43
2023-12-14T00:21:46.511Z,42.06
2023-12-14T00:22:46.541Z,41.95
2023-12-14T00:23:46.488Z,41.82
2023-12-14T00:24:46.480Z,41.50
2023-12-14T00:25:46.541Z,41.93
2023-12-14T00:26:46.469Z,42.12
2023-12-14T00:27:46.453Z,40.67
2023-12-14T00:28:46.488Z,40.21
2023-12-14T00:29:46.421Z,41.25
2023-12-14T00:30:46.490Z,40.47
2023-12-14T00:31:46.446Z,40.06
2023-12-14T00:32:46.438Z,39.42
2023-12-14T00:33:46.456Z,40.43
2023-12-14T00:34:46.413Z,40.90
2023-12-14T00:35:46.359Z,41.19
2023-12-14T00:36:46.371Z,41.61
2023-12-14T00:37:46.370Z,40.96
2023-12-14T00:38:46.325Z,42.75
2023-12-14T00:39:46.317Z,52.59
2023-12-14T00:40:46.386Z,58.37
2023-12-14T00:41:46.306Z,56.47
2023-12-14T00:42:46.280Z,55.26
2023-12-14T00:43:46.293Z,56.47
2023-12-14T00:44:46.262Z,55.17
2023-12-14T00:45:46.261Z,50.75
2023-12-14T00:46:46.273Z,43.51
2023-12-14T00:47:46.251Z,40.27
2023-12-14T00:48:46.252Z,40.68
2023-12-14T00:49:46.260Z,44.81
2023-12-14T00:50:46.222Z,39.71
2023-12-14T00:51:46.190Z,39.16
2023-12-14T00:52:46.195Z,39.50
2023-12-14T00:53:46.165Z,40.69
2023-12-14T00:54:46.166Z,40.72
2023-12-14T00:55:46.192Z,40.54
2023-12-14T00:56:46.142Z,39.67
2023-12-14T00:57:46.122Z,39.95
2023-12-14T00:58:46.163Z,38.90
2023-12-14T00:59:46.232Z,38.74
2023-12-14T01:00:46.092Z,39.97
2023-12-14T01:01:46.135Z,41.71
2023-12-14T01:02:46.098Z,41.18
2023-12-14T01:03:46.073Z,42.77
2023-12-14T01:04:46.089Z,41.33
2023-12-14T01:05:46.072Z,43.72
2023-12-14T01:06:46.030Z,39.55
2023-12-14T01:07:46.089Z,38.28
2023-12-14T01:08:46.011Z,39.32
2023-12-14T01:09:46.012Z,38.95
2023-12-14T01:10:46.038Z,38.73
2023-12-14T01:11:45.972Z,38.14
2023-12-14T01:12:45.964Z,39.18
2023-12-14T01:13:46.029Z,39.30
2023-12-14T01:14:45.965Z,39.39
2023-12-14T01:15:45.932Z,38.88
2023-12-14T01:16:45.936Z,38.37
2023-12-14T01:17:45.987Z,37.93
2023-12-14T01:18:46.003Z,39.09
2023-12-14T01:19:45.910Z,39.27
2023-12-14T01:20:45.878Z,38.38
2023-12-14T01:21:45.875Z,39.92
2023-12-14T01:22:45.977Z,40.29
2023-12-14T01:23:45.862Z,39.58
2023-12-14T01:24:45.836Z,38.79
2023-12-14T01:25:45.848Z,39.14
2023-12-14T01:26:45.813Z,41.01
2023-12-14T01:27:45.807Z,40.97
2023-12-14T01:28:45.825Z,40.87
2023-12-14T01:29:45.784Z,39.66
2023-12-14T01:30:45.804Z,38.86
2023-12-14T01:31:45.836Z,38.72
2023-12-14T01:32:45.800Z,40.29
2023-12-14T01:33:45.783Z,40.55
2023-12-14T01:34:45.754Z,38.40
2023-12-14T01:35:45.715Z,40.20
2023-12-14T01:36:45.704Z,40.99
2023-12-14T01:37:45.769Z,39.92
2023-12-14T01:38:45.682Z,39.10
2023-12-14T01:39:45.683Z,40.22
2023-12-14T01:40:45.712Z,40.09
2023-12-14T01:41:45.657Z,40.35
2023-12-14T01:42:45.651Z,40.19
2023-12-14T01:43:45.650Z,38.48
2023-12-14T01:44:45.632Z,39.22
2023-12-14T01:45:45.623Z,40.13
2023-12-14T01:46:45.628Z,41.12
2023-12-14T01:47:45.640Z,40.86
2023-12-14T01:48:45.652Z,40.31
2023-12-14T01:49:45.626Z,41.07
2023-12-14T01:50:45.569Z,41.21
2023-12-14T01:51:45.558Z,40.58
2023-12-14T01:52:45.587Z,40.55
2023-12-14T01:53:45.541Z,41.11
2023-12-14T01:54:45.535Z,41.10
2023-12-14T01:55:45.542Z,40.17
2023-12-14T01:56:45.510Z,41.06
2023-12-14T01:57:45.488Z,40.50
2023-12-14T01:58:45.485Z,40.44
2023-12-14T01:59:45.470Z,40.42
2023-12-14T02:00:45.505Z,45.42
2023-12-14T02:01:45.517Z,42.34
2023-12-14T02:02:45.436Z,46.00
2023-12-14T02:03:45.487Z,40.50
2023-12-14T02:04:45.431Z,39.56
2023-12-14T02:05:45.459Z,42.54
2023-12-14T02:06:45.397Z,51.06
2023-12-14T02:07:45.430Z,48.94
2023-12-14T02:08:45.379Z,42.15
2023-12-14T02:09:45.424Z,42.96
2023-12-14T02:10:45.414Z,43.79
2023-12-14T02:11:45.388Z,41.26
2023-12-14T02:12:45.341Z,41.29
2023-12-14T02:13:45.365Z,41.10
2023-12-14T02:14:45.320Z,40.30
2023-12-14T02:15:45.337Z,40.27
2023-12-14T02:16:45.322Z,40.41
2023-12-14T02:17:45.335Z,41.25
2023-12-14T02:18:45.408Z,41.71
2023-12-14T02:19:46.487Z,42.59
2023-12-14T02:20:46.445Z,40.90
2023-12-14T02:21:46.383Z,45.96
2023-12-14T02:22:46.391Z,43.21
2023-12-14T02:23:46.426Z,40.98
2023-12-14T02:24:46.442Z,42.05
2023-12-14T02:25:46.370Z,42.70
2023-12-14T02:27:01.855Z,40.72
2023-12-14T02:27:47.319Z,44.88
2023-12-14T02:28:46.388Z,45.45
2023-12-14T02:29:46.330Z,43.61
2023-12-14T02:30:46.311Z,43.71
2023-12-14T02:31:46.344Z,48.02
2023-12-14T02:32:46.352Z,48.09
2023-12-14T02:33:46.339Z,42.95
2023-12-14T02:34:46.346Z,44.46
2023-12-14T02:35:46.298Z,45.18
2023-12-14T02:36:46.272Z,45.85
2023-12-14T02:37:46.357Z,45.93
2023-12-14T02:38:46.348Z,45.45
2023-12-14T02:39:46.267Z,43.00
2023-12-14T02:40:46.233Z,43.64
2023-12-14T02:41:46.237Z,42.90
2023-12-14T02:42:46.235Z,43.94
2023-12-14T02:43:46.276Z,43.45
2023-12-14T02:44:46.222Z,44.46
2023-12-14T02:45:46.172Z,44.96
2023-12-14T02:46:46.227Z,43.70
2023-12-14T02:47:46.189Z,41.86
2023-12-14T02:48:46.200Z,44.37
2023-12-14T02:49:46.213Z,44.42
2023-12-14T02:50:46.141Z,43.42
2023-12-14T02:51:46.134Z,44.17
2023-12-14T02:52:46.148Z,43.51
2023-12-14T02:53:46.115Z,42.57
2023-12-14T02:54:46.106Z,43.18
2023-12-14T02:55:46.097Z,45.24
2023-12-14T02:56:46.073Z,44.02
2023-12-14T02:57:46.125Z,42.30
2023-12-14T02:58:46.132Z,44.85
2023-12-14T02:59:46.047Z,43.93
2023-12-14T03:00:46.067Z,42.74
2023-12-14T03:01:46.064Z,42.67
2023-12-14T03:02:46.031Z,44.68
2023-12-14T03:03:46.082Z,44.92
2023-12-14T03:04:46.017Z,52.09
2023-12-14T03:05:46.011Z,46.94
2023-12-14T03:06:45.948Z,48.78
2023-12-14T03:07:45.991Z,44.40
2023-12-14T03:08:45.950Z,45.64
2023-12-14T03:09:46.081Z,46.51
2023-12-14T03:10:46.032Z,46.30
2023-12-14T03:11:45.959Z,49.80
2023-12-14T03:12:45.917Z,43.83
2023-12-14T03:13:45.967Z,41.61
2023-12-14T03:14:45.924Z,44.11
2023-12-14T03:15:45.893Z,45.01
2023-12-14T03:16:45.898Z,43.89
2023-12-14T03:17:46.921Z,43.88
2023-12-14T03:18:45.898Z,45.84
2023-12-14T03:19:45.881Z,43.37
2023-12-14T03:20:45.836Z,44.46
2023-12-14T03:21:45.853Z,42.96
2023-12-14T03:22:45.849Z,44.18
2023-12-14T03:23:45.805Z,43.09
2023-12-14T03:24:45.769Z,41.53
2023-12-14T03:25:45.810Z,41.55
2023-12-14T03:26:45.788Z,42.30
2023-12-14T03:27:45.778Z,41.91
2023-12-14T03:28:45.794Z,40.06
2023-12-14T03:29:45.762Z,40.47
2023-12-14T03:30:45.815Z,42.14
2023-12-14T03:31:45.747Z,44.43
2023-12-14T03:32:45.763Z,46.42
2023-12-14T03:33:45.820Z,43.64
2023-12-14T03:34:45.707Z,41.99
2023-12-14T03:35:45.762Z,42.76
2023-12-14T03:36:45.668Z,44.81
2023-12-14T03:37:45.752Z,44.81
2023-12-14T03:38:45.659Z,46.62
2023-12-14T03:39:45.669Z,47.13
2023-12-14T03:40:45.655Z,44.50
2023-12-14T03:41:45.620Z,44.49
2023-12-14T03:42:45.636Z,46.58
2023-12-14T03:43:45.661Z,43.82
2023-12-14T03:44:45.625Z,45.33
2023-12-14T03:45:45.600Z,43.80
2023-12-14T03:46:45.630Z,48.13
2023-12-14T03:47:45.655Z,47.63
2023-12-14T03:48:45.593Z,46.64
2023-12-14T03:49:45.565Z,45.29
2023-12-14T03:50:45.571Z,46.85
2023-12-14T03:51:45.528Z,45.41
2023-12-14T03:52:45.532Z,45.71
2023-12-14T03:53:45.554Z,47.27
2023-12-14T03:54:45.573Z,50.28
2023-12-14T03:55:45.525Z,47.46
2023-12-14T03:56:45.454Z,48.09
2023-12-14T03:57:45.476Z,48.59
2023-12-14T03:58:45.492Z,46.19
2023-12-14T03:59:45.449Z,47.16
2023-12-14T04:00:45.442Z,50.35
2023-12-14T04:01:45.434Z,47.33
2023-12-14T04:02:45.443Z,45.44
2023-12-14T04:03:45.425Z,46.45
2023-12-14T04:04:45.440Z,48.65
2023-12-14T04:05:45.454Z,47.08
2023-12-14T04:06:45.377Z,48.47
2023-12-14T04:07:45.482Z,50.45
2023-12-14T04:08:45.369Z,47.50
2023-12-14T04:09:45.375Z,45.67
2023-12-14T04:10:45.366Z,47.65
2023-12-14T04:11:45.327Z,49.05
2023-12-14T04:12:45.341Z,44.97
2023-12-14T04:13:45.383Z,46.16
2023-12-14T04:14:45.311Z,51.83
2023-12-14T04:15:45.323Z,53.99
2023-12-14T04:16:45.334Z,45.37
2023-12-14T04:17:45.430Z,48.79
2023-12-14T04:18:45.391Z,45.57
2023-12-14T04:19:45.326Z,49.38
2023-12-14T04:20:45.284Z,49.59
2023-12-14T04:21:45.246Z,46.37
2023-12-14T04:22:45.407Z,51.14
2023-12-14T04:23:45.222Z,45.99
2023-12-14T04:24:45.222Z,47.66
2023-12-14T04:25:45.200Z,44.33
2023-12-14T04:26:45.198Z,45.52
2023-12-14T04:27:45.175Z,53.22
2023-12-14T04:28:45.322Z,46.52
2023-12-14T04:29:45.178Z,44.75
2023-12-14T04:30:45.176Z,51.23
2023-12-14T04:31:45.158Z,44.79
2023-12-14T04:32:45.195Z,44.86
2023-12-14T04:33:45.143Z,45.31
2023-12-14T04:34:45.176Z,46.75
2023-12-14T04:35:45.105Z,47.59
2023-12-14T04:36:45.107Z,50.73
2023-12-14T04:37:45.135Z,47.23
2023-12-14T04:38:45.132Z,46.44
2023-12-14T04:39:45.035Z,48.95
2023-12-14T04:40:45.106Z,48.24
2023-12-14T04:41:45.067Z,51.05
2023-12-14T04:42:45.018Z,46.53
2023-12-14T04:43:45.067Z,50.41
2023-12-14T04:44:45.009Z,46.16
2023-12-14T04:45:45.047Z,49.77
2023-12-14T04:46:45.069Z,44.70
2023-12-14T04:47:45.019Z,43.55
2023-12-14T04:48:45.068Z,46.75
2023-12-14T04:49:45.044Z,47.87
2023-12-14T04:50:44.962Z,50.79
2023-12-14T04:51:44.957Z,48.57
2023-12-14T04:52:44.980Z,44.28
2023-12-14T04:53:44.897Z,46.91
2023-12-14T04:54:44.910Z,47.06
2023-12-14T04:55:46.189Z,48.12
2023-12-14T04:56:44.937Z,48.01
2023-12-14T04:57:44.911Z,50.99
2023-12-14T04:58:44.883Z,49.28
2023-12-14T04:59:44.866Z,53.39
2023-12-14T05:00:44.871Z,49.98
2023-12-14T05:01:44.878Z,46.77
2023-12-14T05:02:44.834Z,46.38
2023-12-14T05:03:44.831Z,50.85
2023-12-14T05:04:44.823Z,49.41
2023-12-14T05:05:44.849Z,47.30
2023-12-14T05:06:44.803Z,48.53
2023-12-14T05:07:44.811Z,48.47
2023-12-14T05:08:44.780Z,51.86
2023-12-14T05:09:44.818Z,45.40
2023-12-14T05:10:44.797Z,45.94
2023-12-14T05:11:44.733Z,47.26
2023-12-14T05:12:44.708Z,46.71
2023-12-14T05:13:44.723Z,46.51
2023-12-14T05:14:44.923Z,54.05
2023-12-14T05:15:44.714Z,54.65
2023-12-14T05:16:44.722Z,47.85
2023-12-14T05:17:44.704Z,47.12
2023-12-14T05:18:44.713Z,51.01
2023-12-14T05:19:44.698Z,48.76
2023-12-14T05:20:44.646Z,45.24
2023-12-14T05:21:44.641Z,51.21
2023-12-14T05:22:44.623Z,48.71
2023-12-14T05:23:44.605Z,47.66
2023-12-14T05:24:44.610Z,50.45
2023-12-14T05:25:44.608Z,50.49
2023-12-14T05:26:44.585Z,49.09
2023-12-14T05:27:44.580Z,46.43
2023-12-14T05:28:45.547Z,48.92
2023-12-14T05:29:44.601Z,48.85
2023-12-14T05:30:44.590Z,46.91
2023-12-14T05:31:44.585Z,50.70
2023-12-14T05:32:44.638Z,53.52
2023-12-14T05:33:44.670Z,52.97
2023-12-14T05:34:44.562Z,45.77
2023-12-14T05:35:44.491Z,53.08
2023-12-14T05:36:44.495Z,48.10
2023-12-14T05:37:44.555Z,44.24
2023-12-14T05:38:44.483Z,45.73
2023-12-14T05:39:44.474Z,47.69
2023-12-14T05:40:44.453Z,49.94
2023-12-14T05:41:44.465Z,47.16
2023-12-14T05:42:44.457Z,51.70
2023-12-14T05:43:44.461Z,51.36
2023-12-14T05:44:44.432Z,50.46
2023-12-14T05:45:44.453Z,51.55
2023-12-14T05:46:44.438Z,49.62
2023-12-14T05:47:44.489Z,50.91
2023-12-14T05:48:44.392Z,52.08
2023-12-14T05:49:44.447Z,53.57
2023-12-14T05:50:44.343Z,52.03
2023-12-14T05:51:44.348Z,51.88
2023-12-14T05:52:44.398Z,49.73
2023-12-14T05:53:44.358Z,51.00
2023-12-14T05:54:44.313Z,46.22
2023-12-14T05:55:44.318Z,49.60
2023-12-14T05:56:44.312Z,45.48
2023-12-14T05:57:44.291Z,47.37
2023-12-14T05:58:44.290Z,49.26
2023-12-14T05:59:44.246Z,52.25
2023-12-14T06:00:44.273Z,47.96
2023-12-14T06:01:44.450Z,50.52
2023-12-14T06:02:44.401Z,52.39
2023-12-14T06:03:44.291Z,49.92
2023-12-14T06:04:45.102Z,51.93
2023-12-14T06:05:44.286Z,48.44
2023-12-14T06:06:44.207Z,48.50
2023-12-14T06:07:44.232Z,55.21
2023-12-14T06:08:44.154Z,50.99
2023-12-14T06:09:44.150Z,51.48
2023-12-14T06:10:44.232Z,47.18
2023-12-14T06:11:44.206Z,50.92
2023-12-14T06:12:44.127Z,50.47
2023-12-14T06:13:44.189Z,49.92
2023-12-14T06:14:44.091Z,51.84
2023-12-14T06:15:44.133Z,46.76
2023-12-14T06:16:44.140Z,55.40
2023-12-14T06:17:44.328Z,50.41
2023-12-14T06:18:44.180Z,50.99
2023-12-14T06:19:44.096Z,53.89
2023-12-14T06:20:44.079Z,53.02
2023-12-14T06:21:44.042Z,55.39
2023-12-14T06:22:44.051Z,48.78
2023-12-14T06:23:44.045Z,55.02
2023-12-14T06:24:44.025Z,51.94
2023-12-14T06:25:44.029Z,48.40
2023-12-14T06:26:43.992Z,51.45
2023-12-14T06:27:43.964Z,48.15
2023-12-14T06:28:44.025Z,50.94
2023-12-14T06:29:43.997Z,52.56
2023-12-14T06:30:44.044Z,53.91
2023-12-14T06:31:43.972Z,47.32
2023-12-14T06:32:43.970Z,47.30
2023-12-14T06:33:44.053Z,52.14
2023-12-14T06:34:43.947Z,51.06
2023-12-14T06:35:43.896Z,50.57
2023-12-14T06:36:43.870Z,46.91
2023-12-14T06:37:43.889Z,46.86
2023-12-14T06:38:43.844Z,56.26
2023-12-14T06:39:43.856Z,57.71
2023-12-14T06:40:43.853Z,51.97
2023-12-14T06:41:43.823Z,53.43
2023-12-14T06:42:44.840Z,52.59
2023-12-14T06:43:44.497Z,52.25
2023-12-14T06:44:43.803Z,48.62
2023-12-14T06:45:43.799Z,50.61
2023-12-14T06:46:43.792Z,56.38
2023-12-14T06:47:45.293Z,56.88
2023-12-14T06:48:44.574Z,47.30
2023-12-14T06:49:43.881Z,48.41
2023-12-14T06:50:45.941Z,56.18
2023-12-14T06:51:43.715Z,52.64
2023-12-14T06:52:43.913Z,54.32
2023-12-14T06:53:43.712Z,48.18
2023-12-14T06:54:43.691Z,52.11
2023-12-14T06:55:43.769Z,46.83
2023-12-14T06:56:43.662Z,54.46
2023-12-14T06:57:43.657Z,51.65
2023-12-14T06:58:43.746Z,46.29
2023-12-14T06:59:43.658Z,52.08
2023-12-14T07:00:43.649Z,45.58
2023-12-14T07:01:43.644Z,58.93
2023-12-14T07:02:43.606Z,53.54
2023-12-14T07:03:44.845Z,54.50
2023-12-14T07:06:35.441Z,49.34
2023-12-14T07:06:43.586Z,52.21
2023-12-14T07:07:43.626Z,51.92
2023-12-14T07:08:43.576Z,46.38
2023-12-14T07:09:43.583Z,48.70
2023-12-14T07:10:46.373Z,47.76
2023-12-14T07:11:44.553Z,46.11
2023-12-14T07:12:43.583Z,43.22
2023-12-14T07:13:43.501Z,45.63
2023-12-14T07:14:43.496Z,42.38
2023-12-14T07:15:43.474Z,49.51
2023-12-14T07:16:43.517Z,49.82
2023-12-14T07:17:43.602Z,50.06
2023-12-14T07:18:43.561Z,46.86
2023-12-14T07:19:43.497Z,45.91
2023-12-14T07:20:43.443Z,50.80
2023-12-14T07:21:43.438Z,46.88
2023-12-14T07:22:43.457Z,49.32
2023-12-14T07:23:43.434Z,53.25
2023-12-14T07:24:52.176Z,48.51
2023-12-14T07:25:45.426Z,50.26
2023-12-14T07:26:43.398Z,45.64
2023-12-14T07:27:43.362Z,49.18
2023-12-14T07:28:43.373Z,50.46
2023-12-14T07:29:43.333Z,47.70
2023-12-14T07:30:43.904Z,46.45
2023-12-14T07:31:43.365Z,49.57
2023-12-14T07:32:43.322Z,41.29
2023-12-14T07:33:43.360Z,45.64
2023-12-14T07:34:43.284Z,54.25
2023-12-14T07:35:43.284Z,47.17
2023-12-14T07:36:43.334Z,51.54
2023-12-14T07:37:43.285Z,51.42
2023-12-14T07:38:43.277Z,51.78
2023-12-14T07:39:43.236Z,50.44
2023-12-14T07:40:43.278Z,46.35
2023-12-14T07:41:43.216Z,51.85
2023-12-14T07:42:43.241Z,46.80
2023-12-14T07:43:43.302Z,49.57
2023-12-14T07:44:43.197Z,45.91
2023-12-14T07:45:43.192Z,43.63
2023-12-14T07:46:43.350Z,50.59
2023-12-14T07:47:43.225Z,50.56
2023-12-14T07:48:43.177Z,51.87
2023-12-14T07:49:43.222Z,48.74
2023-12-14T07:50:43.132Z,51.14
2023-12-14T07:51:43.115Z,50.05
2023-12-14T07:52:43.106Z,54.59
2023-12-14T07:53:43.125Z,44.15
2023-12-14T07:54:43.132Z,51.39
2023-12-14T07:55:43.088Z,47.33
2023-12-14T07:56:43.071Z,50.43
2023-12-14T07:57:43.107Z,45.14
2023-12-14T07:58:43.195Z,51.30
2023-12-14T07:59:43.110Z,57.02
2023-12-14T08:00:43.062Z,49.53
2023-12-14T08:01:43.032Z,55.98
2023-12-14T08:02:43.013Z,50.96
2023-12-14T08:03:43.052Z,52.38
2023-12-14T08:04:43.023Z,47.43
2023-12-14T08:05:43.022Z,40.54
2023-12-14T08:06:42.982Z,46.88
2023-12-14T08:07:43.061Z,48.05
2023-12-14T08:08:42.957Z,46.81
2023-12-14T08:09:42.914Z,47.14
2023-12-14T08:10:42.989Z,49.86
2023-12-14T08:11:42.945Z,51.03
2023-12-14T08:12:42.926Z,45.54
2023-12-14T08:13:42.938Z,50.93
2023-12-14T08:14:42.868Z,49.61
2023-12-14T08:15:42.854Z,47.23
2023-12-14T08:16:42.898Z,48.70
2023-12-14T08:17:42.911Z,47.22
2023-12-14T08:18:42.853Z,54.42
2023-12-14T08:19:42.829Z,48.14
2023-12-14T08:20:42.796Z,48.12
2023-12-14T08:21:42.804Z,40.52
2023-12-14T08:22:42.830Z,45.58
2023-12-14T08:23:42.781Z,52.76
2023-12-14T08:24:42.788Z,44.24
2023-12-14T08:25:42.823Z,47.86
2023-12-14T08:26:42.740Z,48.93
2023-12-14T08:27:42.753Z,52.10
2023-12-14T08:28:42.758Z,52.61
2023-12-14T08:29:42.671Z,53.39
2023-12-14T08:30:42.704Z,53.16
2023-12-14T08:31:42.777Z,51.01
2023-12-14T08:32:42.878Z,50.06
2023-12-14T08:33:43.212Z,49.06
2023-12-14T08:34:42.702Z,48.44
2023-12-14T08:35:42.676Z,49.15
2023-12-14T08:36:42.642Z,49.53
2023-12-14T08:37:42.691Z,46.12
2023-12-14T08:38:42.628Z,48.87
2023-12-14T08:39:42.590Z,49.77
2023-12-14T08:40:42.629Z,44.68
2023-12-14T08:41:42.652Z,50.31
2023-12-14T08:42:42.541Z,50.89
2023-12-14T08:43:42.615Z,48.77
2023-12-14T08:44:42.642Z,45.88
2023-12-14T08:45:47.293Z,45.57
2023-12-14T08:46:42.540Z,49.63
2023-12-14T08:47:42.645Z,55.92
2023-12-14T08:48:42.555Z,50.46
2023-12-14T08:49:42.512Z,53.03
2023-12-14T08:50:42.570Z,46.95
2023-12-14T08:51:45.525Z,44.28
2023-12-14T08:52:56.373Z,51.78
2023-12-14T08:53:54.265Z,47.84
2023-12-14T08:54:50.263Z,43.93
2023-12-14T08:55:59.876Z,49.92
2023-12-14T08:56:44.474Z,48.16
2023-12-14T08:57:42.453Z,54.61
2023-12-14T08:58:42.568Z,50.38
2023-12-14T08:59:44.482Z,50.34
2023-12-14T09:00:43.413Z,50.36
2023-12-14T09:01:42.471Z,53.87
2023-12-14T09:02:42.585Z,39.41
2023-12-14T09:03:42.369Z,40.51
2023-12-14T09:04:42.403Z,49.37
2023-12-14T09:05:42.394Z,44.49
2023-12-14T09:06:42.347Z,46.53
2023-12-14T09:07:42.386Z,50.12
2023-12-14T09:08:42.295Z,45.64
2023-12-14T09:09:42.326Z,44.67
2023-12-14T09:10:42.301Z,51.27
2023-12-14T09:11:42.284Z,46.18
2023-12-14T09:12:42.293Z,39.53
2023-12-14T09:13:42.298Z,46.20
2023-12-14T09:14:42.328Z,52.87
2023-12-14T09:15:42.218Z,52.69
2023-12-14T09:16:42.239Z,46.62
2023-12-14T09:17:42.616Z,54.20
2023-12-14T09:18:42.224Z,49.63
2023-12-14T09:19:42.190Z,55.55
2023-12-14T09:20:42.163Z,52.80
2023-12-14T09:21:46.610Z,50.62
2023-12-14T09:22:42.216Z,51.42
2023-12-14T09:23:42.164Z,47.73
2023-12-14T09:24:42.155Z,50.27
2023-12-14T09:25:42.227Z,50.22
2023-12-14T09:26:42.084Z,47.52
2023-12-14T09:27:42.102Z,48.93
2023-12-14T09:28:42.302Z,49.76
2023-12-14T09:29:42.069Z,52.00
2023-12-14T09:30:42.145Z,49.18
2023-12-14T09:31:42.092Z,46.65
2023-12-14T09:32:42.132Z,53.77
2023-12-14T09:33:42.221Z,54.99
2023-12-14T09:34:42.036Z,54.63
2023-12-14T09:35:42.004Z,51.13
2023-12-14T09:36:42.004Z,48.30
2023-12-14T09:37:42.010Z,45.53
2023-12-14T09:38:42.005Z,42.76
2023-12-14T09:39:42.028Z,45.49
2023-12-14T09:40:41.984Z,54.50
2023-12-14T09:41:42.062Z,50.09
2023-12-14T09:42:42.087Z,46.00
2023-12-14T09:43:42.970Z,45.21
2023-12-14T09:44:41.992Z,53.10
2023-12-14T09:45:42.151Z,51.51
2023-12-14T09:46:41.984Z,46.16
2023-12-14T09:47:41.931Z,54.41
2023-12-14T09:48:41.935Z,53.46
2023-12-14T09:49:41.981Z,48.78
2023-12-14T09:50:41.951Z,47.26
2023-12-14T09:51:41.872Z,45.45
2023-12-14T09:52:41.854Z,44.67
2023-12-14T09:53:41.875Z,49.20
2023-12-14T09:54:42.022Z,51.25
2023-12-14T09:55:42.856Z,47.51
2023-12-14T09:56:44.902Z,48.50
2023-12-14T09:57:43.396Z,50.01
2023-12-14T09:58:45.176Z,50.78
2023-12-14T09:59:41.751Z,50.17
2023-12-14T10:00:41.778Z,48.24
2023-12-14T10:01:43.273Z,52.27
2023-12-14T10:02:41.734Z,52.88
2023-12-14T10:03:41.774Z,56.80
2023-12-14T10:04:41.811Z,45.41
2023-12-14T10:05:41.882Z,50.34
2023-12-14T10:06:41.760Z,54.36
2023-12-14T10:07:41.723Z,45.66
2023-12-14T10:08:41.696Z,47.92
2023-12-14T10:09:41.666Z,46.26
2023-12-14T10:10:43.323Z,51.26
2023-12-14T10:11:48.527Z,50.72
2023-12-14T10:12:45.792Z,53.31
2023-12-14T10:27:24.036Z,47.59
2023-12-14T10:28:24.038Z,55.66
2023-12-14T10:59:52.721Z,49.47
2023-12-14T11:00:56.236Z,52.99
2023-12-14T11:01:53.681Z,51.03
2023-12-14T11:02:52.703Z,51.13
2023-12-14T11:03:52.682Z,51.17
2023-12-14T11:04:52.707Z,48.56
2023-12-14T11:05:55.515Z,51.27
2023-12-14T11:06:54.197Z,55.16
2023-12-14T11:07:52.661Z,49.08
2023-12-14T11:29:43.081Z,47.39
2023-12-14T11:30:52.165Z,51.21
2023-12-14T11:31:43.897Z,55.84
2023-12-14T11:32:42.879Z,49.62
2023-12-14T11:33:44.527Z,40.47
2023-12-14T11:34:42.904Z,46.87
2023-12-14T11:35:42.865Z,48.55
2023-12-14T11:36:42.866Z,52.67
2023-12-14T11:37:42.811Z,51.66
2023-12-14T11:38:42.797Z,45.27
2023-12-14T11:39:43.362Z,47.23
2023-12-14T11:40:51.621Z,51.15
2023-12-14T11:41:45.440Z,46.79
2023-12-14T11:45:09.297Z,49.28
2023-12-14T11:46:09.188Z,48.40
2023-12-14T11:47:09.230Z,44.36
2023-12-14T11:48:09.261Z,57.89
2023-12-14T11:49:09.238Z,51.94
2023-12-14T11:50:09.186Z,50.80
2023-12-14T11:51:09.188Z,49.17
2023-12-14T11:52:09.116Z,50.31
2023-12-14T11:53:09.294Z,43.96
2023-12-14T11:54:09.113Z,46.87
2023-12-14T11:55:09.105Z,44.77
2023-12-14T11:56:09.157Z,46.72
2023-12-14T11:57:09.076Z,42.07
2023-12-14T11:58:09.056Z,53.66
2023-12-14T11:59:09.083Z,53.62
2023-12-14T12:00:09.045Z,40.91
2023-12-14T12:01:09.050Z,54.18
2023-12-14T12:02:09.042Z,50.27
2023-12-14T12:03:09.045Z,49.60
2023-12-14T12:04:09.025Z,50.27
2023-12-14T12:05:09.081Z,50.91
2023-12-14T12:06:09.139Z,54.82
2023-12-14T12:07:09.002Z,52.89
2023-12-14T12:08:08.986Z,46.39
2023-12-14T12:09:08.949Z,48.55
2023-12-14T12:10:08.955Z,53.19
2023-12-14T12:11:08.943Z,50.90
2023-12-14T12:12:08.990Z,53.18
2023-12-14T12:13:08.910Z,51.10
2023-12-14T12:14:08.927Z,54.28
2023-12-14T12:15:08.900Z,48.00
2023-12-14T12:16:08.873Z,51.90
2023-12-14T12:17:08.967Z,47.16
2023-12-14T12:18:08.930Z,45.92
2023-12-14T12:19:08.859Z,46.98
2023-12-14T12:20:08.877Z,49.77
2023-12-14T12:21:08.822Z,48.68
2023-12-14T12:22:08.837Z,48.55
2023-12-14T12:23:08.919Z,51.19
2023-12-14T12:24:18.555Z,53.37
2023-12-14T12:25:15.483Z,52.33
2023-12-14T12:26:09.825Z,54.58
2023-12-14T12:27:08.767Z,52.95
2023-12-14T12:28:08.781Z,48.26
2023-12-14T12:29:08.782Z,48.30
2023-12-14T12:30:08.760Z,50.42
2023-12-14T12:31:08.838Z,50.03
2023-12-14T12:32:08.751Z,55.12
2023-12-14T12:33:08.766Z,51.52
2023-12-14T12:34:08.738Z,58.36
2023-12-14T12:35:08.728Z,55.74
2023-12-14T12:36:08.756Z,52.92
2023-12-14T12:37:08.666Z,51.55
2023-12-14T12:38:08.722Z,51.54
2023-12-14T12:39:08.667Z,46.95
2023-12-14T12:40:08.617Z,51.49
2023-12-14T12:41:08.629Z,53.42
2023-12-14T12:42:08.603Z,52.73
2023-12-14T12:43:08.609Z,56.83
2023-12-14T12:44:08.611Z,52.07
2023-12-14T12:45:08.571Z,56.49
2023-12-14T12:46:08.609Z,48.34
2023-12-14T12:47:11.406Z,49.15
2023-12-14T12:48:08.967Z,49.17
2023-12-14T12:49:08.604Z,59.13
2023-12-14T12:50:08.592Z,51.72
2023-12-14T12:51:08.509Z,47.05
2023-12-14T12:52:08.509Z,46.75
2023-12-14T12:53:08.516Z,45.34
2023-12-14T12:54:12.931Z,49.14
2023-12-14T12:55:09.468Z,49.37
2023-12-14T12:56:08.494Z,51.70
2023-12-14T12:57:08.457Z,49.44
2023-12-14T12:58:08.435Z,47.17
2023-12-14T12:59:09.954Z,53.18
2023-12-14T13:00:08.411Z,49.25
2023-12-14T13:01:08.430Z,53.29
2023-12-14T13:02:08.420Z,47.77
2023-12-14T13:03:08.412Z,52.21
2023-12-14T13:04:08.371Z,46.65
2023-12-14T13:05:08.465Z,52.70
2023-12-14T13:06:08.430Z,53.90
2023-12-14T13:07:08.351Z,54.77
2023-12-14T13:08:08.379Z,55.56
2023-12-14T13:09:08.324Z,52.37
2023-12-14T13:10:16.029Z,53.01
2023-12-14T13:11:09.333Z,49.48
2023-12-14T13:12:08.301Z,54.34
2023-12-14T13:13:08.298Z,54.75
2023-12-14T13:14:08.285Z,56.50
2023-12-14T13:15:08.257Z,55.77
2023-12-14T13:16:08.298Z,55.12
2023-12-14T13:17:08.320Z,57.94
2023-12-14T13:18:08.325Z,56.46
2023-12-14T13:19:08.263Z,45.02
2023-12-14T13:20:08.313Z,46.50
2023-12-14T13:21:08.213Z,44.30
2023-12-14T13:22:08.242Z,50.37
2023-12-14T13:23:08.267Z,53.69
2023-12-14T13:24:08.249Z,49.43
2023-12-14T13:25:08.222Z,44.83
2023-12-14T13:26:08.287Z,48.75
2023-12-14T13:27:08.148Z,52.66
2023-12-14T13:28:08.130Z,52.43
2023-12-14T13:29:08.222Z,45.57
2023-12-14T13:30:08.118Z,43.41
2023-12-14T13:31:08.163Z,56.41
2023-12-14T13:32:08.110Z,53.77
2023-12-14T13:33:08.204Z,46.60
2023-12-14T13:34:09.645Z,56.12
2023-12-14T13:35:09.185Z,58.72
2023-12-14T13:36:08.096Z,55.27
2023-12-14T13:37:08.041Z,57.33
2023-12-14T13:38:08.045Z,56.74
2023-12-14T13:39:08.025Z,50.32
2023-12-14T13:40:08.854Z,52.58
2023-12-14T13:41:08.028Z,46.70
2023-12-14T13:42:08.014Z,50.43
2023-12-14T13:43:08.178Z,55.16
2023-12-14T13:44:07.996Z,53.24
2023-12-14T13:45:07.948Z,51.01
2023-12-14T13:46:18.114Z,56.42
2023-12-14T13:47:09.066Z,46.76
2023-12-14T13:48:08.008Z,47.44
2023-12-14T13:49:08.040Z,54.36
2023-12-14T13:50:07.957Z,53.82
2023-12-14T13:51:07.897Z,58.29
2023-12-14T13:52:07.882Z,51.84
2023-12-14T13:53:26.932Z,56.34
2023-12-14T13:57:16.549Z,52.58
2023-12-14T13:58:16.522Z,55.54
2023-12-14T13:59:16.609Z,54.41
2023-12-14T14:02:42.952Z,50.75
2023-12-14T14:03:43.077Z,49.67
2023-12-14T14:04:42.965Z,51.98
2023-12-14T14:06:43.923Z,53.18
2023-12-14T14:07:42.915Z,48.63